Terminal Aerodrome Forecast
Issued by NWS

Home | Current Version | Previous Version | Text Only | Print | Product List | Glossary On
Versions: 1 2 3 4 5 6 7 8 9 10 11 12 13
000
FTUS42 KMHX 301100
TAFOAJ
TAF
KOAJ 301120Z 3012/3112 02005KT 3SM BR SCT030
     FM301300 13007KT P6SM SCT040
     FM310100 17003KT P6SM SKC
      AMD LTD TO CLD VIS AND WIND=

USA.gov is the U.S. government's official web portal to all federal, state and local government web resources and services.